createdAt,value
2023-03-06T00:04:36.568Z,71.77
2023-03-06T00:09:38.429Z,72.31
2023-03-06T00:14:40.122Z,71.66
2023-03-06T00:19:41.819Z,72.57
2023-03-06T00:24:44.859Z,72.72
2023-03-06T00:29:49.250Z,72.49
2023-03-06T00:34:52.786Z,72.17
2023-03-06T00:39:55.006Z,72.18
2023-03-06T00:44:56.921Z,73.13
2023-03-06T00:49:58.734Z,72.44
2023-03-06T00:55:00.764Z,71.54
2023-03-06T01:00:03.692Z,72.16
2023-03-06T01:05:06.656Z,72.35
2023-03-06T01:10:09.397Z,72.71
2023-03-06T01:15:12.972Z,72.92
2023-03-06T01:20:16.637Z,72.37
2023-03-06T01:25:18.536Z,72.12
2023-03-06T01:30:20.631Z,73.11
2023-03-06T01:35:22.512Z,73.42
2023-03-06T01:40:24.446Z,72.97
2023-03-06T01:45:26.308Z,74.18
2023-03-06T01:50:28.810Z,73.51
2023-03-06T01:55:35.114Z,73.12
2023-03-06T02:00:37.013Z,73.98
2023-03-06T02:05:40.892Z,73.95
2023-03-06T02:10:55.918Z,73.92
2023-03-06T02:15:57.671Z,73.59
2023-03-06T02:21:04.096Z,73.85
2023-03-06T02:26:07.996Z,73.11
2023-03-06T02:31:22.067Z,73.92
2023-03-06T02:36:23.878Z,73.31
2023-03-06T02:41:25.912Z,73.54
2023-03-06T02:46:27.919Z,74.68
2023-03-06T02:51:29.849Z,74.17
2023-03-06T02:56:32.044Z,74.65
2023-03-06T03:01:33.923Z,74.83
2023-03-06T03:06:35.696Z,74.70
2023-03-06T03:11:37.600Z,75.25
2023-03-06T03:16:39.388Z,75.24
2023-03-06T03:21:41.799Z,74.66
2023-03-06T03:26:43.526Z,75.04
2023-03-06T03:31:45.210Z,74.14
2023-03-06T03:36:46.982Z,74.24
2023-03-06T03:41:49.027Z,74.27
2023-03-06T03:46:51.008Z,74.61
2023-03-06T03:51:52.974Z,74.74
2023-03-06T03:56:54.602Z,74.07
2023-03-06T04:01:56.692Z,74.79
2023-03-06T04:06:58.379Z,74.28
2023-03-06T04:12:00.406Z,74.41
2023-03-06T04:17:02.362Z,74.93
2023-03-06T04:22:04.056Z,75.21
2023-03-06T04:27:06.132Z,74.53
2023-03-06T04:32:08.147Z,74.97
2023-03-06T04:37:22.273Z,75.35
2023-03-06T04:42:24.067Z,75.56
2023-03-06T04:47:26.063Z,75.23
2023-03-06T04:52:28.076Z,75.60
2023-03-06T04:57:30.048Z,76.10
2023-03-06T05:02:32.130Z,75.71
2023-03-06T05:07:33.804Z,75.24
2023-03-06T05:12:37.287Z,75.02
2023-03-06T05:17:39.232Z,76.21
2023-03-06T05:22:41.779Z,76.67
2023-03-06T05:27:43.859Z,76.84
2023-03-06T05:32:45.621Z,76.43
2023-03-06T05:37:48.080Z,76.63
2023-03-06T05:42:50.300Z,76.86
2023-03-06T05:47:52.301Z,76.67
2023-03-06T05:52:54.281Z,77.09
2023-03-06T05:57:56.119Z,76.48
2023-03-06T06:03:01.214Z,76.10
2023-03-06T06:08:02.943Z,75.94
2023-03-06T06:13:04.745Z,76.68
2023-03-06T06:18:06.535Z,76.99
2023-03-06T06:23:10.995Z,76.11
2023-03-06T06:28:12.698Z,76.10
2023-03-06T06:33:14.374Z,76.41
2023-03-06T06:38:16.453Z,75.92
2023-03-06T06:43:18.259Z,75.75
2023-03-06T06:48:20.091Z,76.07
2023-03-06T06:53:22.129Z,75.97
2023-03-06T06:58:24.247Z,75.52
2023-03-06T07:03:25.948Z,74.56
2023-03-06T07:08:28.137Z,73.86
2023-03-06T07:13:30.117Z,73.03
2023-03-06T07:18:32.174Z,72.65
2023-03-06T07:23:34.259Z,72.32
2023-03-06T07:28:51.287Z,72.44
2023-03-06T07:33:55.130Z,71.94
2023-03-06T07:38:57.030Z,70.74
2023-03-06T07:43:59.064Z,71.12
2023-03-06T07:49:00.964Z,71.25
2023-03-06T07:54:03.002Z,71.15
2023-03-06T07:59:04.889Z,69.73
2023-03-06T08:04:07.269Z,69.73
2023-03-06T08:09:09.235Z,69.30
2023-03-06T08:14:10.962Z,69.08
2023-03-06T08:19:12.818Z,68.21
2023-03-06T08:24:17.860Z,66.95
2023-03-06T08:29:19.680Z,67.47
2023-03-06T08:34:24.431Z,66.92
2023-03-06T08:39:26.207Z,66.54
2023-03-06T08:44:27.968Z,65.66
2023-03-06T08:49:30.220Z,64.97
2023-03-06T08:54:34.366Z,65.49
2023-03-06T08:59:36.761Z,65.93
2023-03-06T09:04:38.614Z,66.17
2023-03-06T09:09:40.337Z,66.00
2023-03-06T09:14:42.170Z,65.50
2023-03-06T09:19:44.169Z,66.53
2023-03-06T09:24:46.062Z,64.03
2023-03-06T09:29:47.802Z,64.93
2023-03-06T09:34:50.518Z,64.23
2023-03-06T09:39:52.399Z,64.18
2023-03-06T09:44:56.906Z,65.01
2023-03-06T09:50:25.173Z,65.46
2023-03-06T09:55:31.335Z,65.25
2023-03-06T10:00:38.582Z,65.38
2023-03-06T10:05:44.736Z,64.51
2023-03-06T10:11:03.791Z,64.86
2023-03-06T10:16:14.578Z,63.92
2023-03-06T10:21:37.911Z,64.71
2023-03-06T10:26:55.097Z,63.34
2023-03-06T10:32:11.463Z,65.64
2023-03-06T10:37:19.675Z,65.44
2023-03-06T10:42:21.369Z,64.95
2023-03-06T10:47:37.054Z,63.88
2023-03-06T10:52:38.812Z,64.97
2023-03-06T10:57:40.550Z,64.04
2023-03-06T11:02:42.393Z,63.95
2023-03-06T11:07:59.572Z,63.85
2023-03-06T11:13:21.006Z,64.18
2023-03-06T11:18:28.599Z,64.15
2023-03-06T11:23:36.527Z,64.44
2023-03-06T11:28:50.457Z,64.34
2023-03-06T11:33:52.294Z,64.07
2023-03-06T11:38:55.253Z,64.18
2023-03-06T11:44:24.900Z,62.84
2023-03-06T11:49:35.113Z,63.52
2023-03-06T11:54:37.018Z,63.88
2023-03-06T11:59:51.340Z,64.08
2023-03-06T12:05:01.200Z,63.22
2023-03-06T12:10:51.545Z,62.60
2023-03-06T12:16:23.065Z,64.00
2023-03-06T12:21:36.748Z,64.70
2023-03-06T12:26:44.510Z,64.49
2023-03-06T12:32:40.077Z,64.29
2023-03-06T12:38:25.349Z,64.82
2023-03-06T12:44:05.148Z,64.56
2023-03-06T12:49:23.053Z,65.75
2023-03-06T12:54:36.540Z,64.13
2023-03-06T12:59:48.088Z,65.56
2023-03-06T13:05:11.203Z,66.81
2023-03-06T13:10:41.962Z,65.78
2023-03-06T13:15:45.920Z,64.61
2023-03-06T13:20:57.609Z,64.60
2023-03-06T13:26:00.545Z,64.68
2023-03-06T13:31:02.312Z,65.39
2023-03-06T13:36:21.254Z,65.41
2023-03-06T13:41:22.992Z,65.57
2023-03-06T13:46:31.103Z,64.24
2023-03-06T13:51:54.884Z,64.82
2023-03-06T13:57:17.913Z,65.35
2023-03-06T14:02:47.686Z,65.61
2023-03-06T14:08:01.634Z,65.24
2023-03-06T14:13:06.031Z,64.22
2023-03-06T14:18:36.969Z,64.92
2023-03-06T14:23:43.625Z,65.79
2023-03-06T14:28:55.103Z,65.15
2023-03-06T14:34:08.168Z,64.87
2023-03-06T14:39:14.670Z,65.19
2023-03-06T14:44:26.501Z,65.64
2023-03-06T14:49:28.239Z,66.26
2023-03-06T14:54:37.034Z,66.18
2023-03-06T14:59:50.790Z,67.12
2023-03-06T15:04:58.575Z,66.42
2023-03-06T15:10:01.191Z,66.83
2023-03-06T15:15:10.408Z,66.65
2023-03-06T15:20:41.669Z,66.83
2023-03-06T15:25:51.872Z,67.45
2023-03-06T15:31:20.616Z,67.38
2023-03-06T15:36:29.620Z,67.78
2023-03-06T15:41:35.695Z,67.73
2023-03-06T15:46:37.621Z,68.43
2023-03-06T15:51:39.456Z,68.46
2023-03-06T15:56:44.468Z,68.06
2023-03-06T16:01:46.587Z,68.34
2023-03-06T16:06:48.873Z,68.42
2023-03-06T16:11:50.567Z,67.07
2023-03-06T16:16:56.782Z,68.78
2023-03-06T16:21:59.289Z,69.46
2023-03-06T16:27:02.084Z,70.37
2023-03-06T16:32:04.965Z,70.35
2023-03-06T16:37:12.060Z,70.40
2023-03-06T16:42:17.054Z,70.59
2023-03-06T16:47:18.961Z,71.55
2023-03-06T16:52:20.841Z,71.40
2023-03-06T16:57:24.244Z,72.62
2023-03-06T17:02:26.783Z,72.36
2023-03-06T17:07:29.706Z,72.23
2023-03-06T17:12:31.575Z,73.15
2023-03-06T17:17:34.003Z,73.47
2023-03-06T17:22:38.932Z,73.11
2023-03-06T17:27:41.243Z,73.22
2023-03-06T17:32:43.369Z,73.37
2023-03-06T17:37:45.155Z,72.96
2023-03-06T17:42:47.475Z,73.70
2023-03-06T17:47:53.284Z,73.47
2023-03-06T17:52:55.616Z,73.19
2023-03-06T17:57:57.921Z,73.38
2023-03-06T18:03:00.397Z,73.79
2023-03-06T18:08:02.962Z,73.67
2023-03-06T18:13:10.204Z,74.50
2023-03-06T18:18:15.468Z,74.70
2023-03-06T18:23:17.867Z,74.19
2023-03-06T18:28:20.098Z,73.90
2023-03-06T18:33:24.536Z,74.23
2023-03-06T18:38:28.058Z,73.74
2023-03-06T18:43:31.424Z,74.06
2023-03-06T18:48:35.789Z,75.41
2023-03-06T18:53:51.043Z,75.45
2023-03-06T18:58:55.022Z,75.08
2023-03-06T19:04:01.890Z,75.54
2023-03-06T19:09:05.209Z,76.40
2023-03-06T19:14:08.307Z,76.53
2023-03-06T19:19:11.715Z,76.78
2023-03-06T19:24:14.888Z,76.09
2023-03-06T19:29:18.659Z,76.89
2023-03-06T19:34:22.851Z,76.64
2023-03-06T19:39:25.592Z,76.43
2023-03-06T19:44:31.281Z,76.50
2023-03-06T19:49:33.988Z,76.88
2023-03-06T19:54:36.902Z,77.11
2023-03-06T19:59:39.523Z,77.09
2023-03-06T20:04:43.269Z,77.61
2023-03-06T20:09:48.499Z,77.78
2023-03-06T20:14:51.364Z,77.62
2023-03-06T20:19:53.917Z,77.94
2023-03-06T20:24:57.023Z,78.31
2023-03-06T20:30:00.027Z,78.09
2023-03-06T20:35:02.736Z,78.15
2023-03-06T20:40:06.473Z,78.08
2023-03-06T20:45:10.195Z,78.10
2023-03-06T20:50:16.918Z,78.27
2023-03-06T20:55:19.554Z,78.28
2023-03-06T21:00:22.449Z,78.04
2023-03-06T21:05:24.669Z,78.67
2023-03-06T21:10:27.083Z,78.36
2023-03-06T21:15:30.080Z,78.37
2023-03-06T21:20:33.702Z,78.76
2023-03-06T21:25:35.961Z,78.62
2023-03-06T21:30:37.636Z,79.50
2023-03-06T21:35:44.327Z,79.78
2023-03-06T21:40:46.186Z,79.93
2023-03-06T21:45:52.636Z,79.86
2023-03-06T21:51:13.962Z,80.96
2023-03-06T21:56:17.642Z,80.54
2023-03-06T22:01:23.886Z,79.50
2023-03-06T22:06:28.535Z,79.25
2023-03-06T22:11:37.077Z,79.21
2023-03-06T22:16:39.078Z,78.78
2023-03-06T22:21:40.875Z,78.53
2023-03-06T22:26:42.597Z,78.27
2023-03-06T22:31:44.459Z,77.82
2023-03-06T22:36:46.364Z,77.39
2023-03-06T22:41:48.561Z,77.17
2023-03-06T22:46:51.823Z,77.34
2023-03-06T22:51:53.498Z,77.16
2023-03-06T22:56:56.418Z,77.54
2023-03-06T23:01:58.205Z,78.14
2023-03-06T23:06:59.860Z,79.10
2023-03-06T23:12:01.821Z,79.38
2023-03-06T23:17:04.007Z,79.89
2023-03-06T23:22:05.754Z,80.62
2023-03-06T23:27:07.708Z,80.44
2023-03-06T23:32:09.540Z,80.43
2023-03-06T23:37:11.394Z,79.72
2023-03-06T23:42:13.140Z,79.54
2023-03-06T23:47:17.247Z,80.14
2023-03-06T23:52:19.162Z,80.95
2023-03-06T23:57:21.224Z,81.67
